Time;durP1;ratioP1;P1;durP2;ratioP2;P2;SDS_P1;SDS_P2;PMS_P1;PMS_P2;Temp;Humidity;BMP_temperature;BMP_pressure;BME280_temperature;BME280_humidity;BME280_pressure;Samples;Min_cycle;Max_cycle;Signal;HPM_P1;HPM_P2
2023/10/01 00:00:46;;;;;;;6.32;3.72;;;;;;;14.47;84.60;100280.44;12673798;23;20469;-73
2023/10/01 00:05:46;;;;;;;6.13;3.65;;;;;;;14.23;84.89;100229.09;12674696;23;20021;-73
2023/10/01 00:10:48;;;;;;;7.97;3.33;;;;;;;14.81;85.66;100317.13;12676705;23;20105;-73
2023/10/01 00:15:49;;;;;;;8.80;4.28;;;;;;;14.88;86.04;100301.94;12678143;23;20014;-72
2023/10/01 00:20:50;;;;;;;14.00;3.92;;;;;;;14.78;86.00;100290.78;12677985;23;20474;-73
2023/10/01 00:25:50;;;;;;;6.15;3.58;;;;;;;14.54;84.97;100324.94;12678302;23;20021;-73
2023/10/01 00:30:51;;;;;;;8.30;4.00;;;;;;;14.11;85.06;100318.78;12651404;23;20463;-73
2023/10/01 00:35:55;;;;;;;14.90;4.20;;;;;;;13.62;85.81;100317.69;12677823;23;20021;-73
2023/10/01 00:40:55;;;;;;;10.07;4.50;;;;;;;12.86;86.08;100249.63;12677647;23;20032;-73
2023/10/01 00:45:56;;;;;;;16.73;4.63;;;;;;;13.12;87.00;100343.31;12677071;23;20481;-73
2023/10/01 00:50:59;;;;;;;12.10;4.60;;;;;;;12.94;87.20;100340.19;12677319;23;20017;-73
2023/10/01 00:56:02;;;;;;;12.68;4.35;;;;;;;12.75;87.55;100338.91;12676659;23;20038;-72
2023/10/01 01:01:07;;;;;;;10.35;4.57;;;;;;;12.65;88.20;100336.47;12650699;23;20041;-73
2023/10/01 01:06:17;;;;;;;10.70;4.50;;;;;;;12.55;88.00;100330.59;12677233;23;20031;-73
2023/10/01 01:11:19;;;;;;;9.98;4.50;;;;;;;12.46;88.09;100310.34;12677313;23;20022;-73
2023/10/01 01:16:19;;;;;;;10.40;4.20;;;;;;;12.34;88.10;100278.00;12677108;23;20014;-73
2023/10/01 01:21:20;;;;;;;15.23;4.32;;;;;;;12.48;88.36;100314.50;12677127;23;20018;-73
2023/10/01 01:26:22;;;;;;;13.73;4.25;;;;;;;12.48;87.98;100324.34;12650547;23;20105;-73
2023/10/01 01:31:27;;;;;;;8.18;4.50;;;;;;;12.06;88.31;100264.44;12676624;23;20570;-73
2023/10/01 01:36:30;;;;;;;12.10;4.40;;;;;;;12.48;88.47;100329.66;12676953;23;20014;-73
2023/10/01 01:41:32;;;;;;;11.43;5.00;;;;;;;12.36;87.93;100325.78;12676545;23;20017;-73
2023/10/01 01:46:33;;;;;;;12.23;4.35;;;;;;;11.79;87.76;100237.34;12677019;23;20077;-73
2023/10/01 01:51:35;;;;;;;8.90;4.38;;;;;;;12.16;87.58;100298.81;12675532;23;20077;-73
2023/10/01 01:56:40;;;;;;;8.73;4.40;;;;;;;12.17;88.17;100300.44;12676022;23;20025;-72
2023/10/01 02:01:40;;;;;;;9.75;4.70;;;;;;;12.08;88.52;100305.88;12676307;23;20021;-73
2023/10/01 02:06:42;;;;;;;13.10;4.68;;;;;;;12.05;88.57;100310.69;12675729;23;20040;-73
2023/10/01 02:11:44;;;;;;;10.07;4.55;;;;;;;11.98;88.21;100307.94;12675163;23;20010;-73
2023/10/01 02:16:45;;;;;;;12.18;4.47;;;;;;;11.90;88.58;100331.94;12675884;23;20466;-73
2023/10/01 02:21:52;;;;;;;11.50;4.57;;;;;;;11.71;89.02;100306.59;12675819;23;20025;-73
2023/10/01 02:26:59;;;;;;;7.97;4.32;;;;;;;11.85;88.49;100340.47;12675908;23;20461;-73
2023/10/01 02:32:04;;;;;;;11.25;4.28;;;;;;;11.57;88.44;100310.00;12650140;23;20014;-73
2023/10/01 02:37:08;;;;;;;8.52;4.22;;;;;;;11.53;88.63;100335.31;12650190;23;20363;-72
2023/10/01 02:42:20;;;;;;;15.70;5.07;;;;;;;11.50;89.35;100325.84;12675371;23;20014;-73
2023/10/01 02:47:23;;;;;;;8.35;4.72;;;;;;;11.23;89.31;100297.06;12676040;23;20371;-73
2023/10/01 02:52:36;;;;;;;11.10;4.57;;;;;;;11.34;89.88;100321.44;12648791;23;20045;-73
2023/10/01 02:57:40;;;;;;;10.23;5.03;;;;;;;10.73;89.52;100219.34;12674610;23;20018;-73
2023/10/01 03:02:53;;;;;;;18.38;4.95;;;;;;;11.46;90.49;100350.28;12674770;23;20050;-73
2023/10/01 03:07:57;;;;;;;14.57;5.25;;;;;;;11.20;89.71;100327.47;12674339;23;20100;-73
2023/10/01 03:13:01;;;;;;;12.00;4.88;;;;;;;11.38;90.46;100362.63;12674818;23;20442;-73
2023/10/01 03:28:27;;;;;;;11.43;5.13;;;;;;;11.53;89.52;100343.28;12674658;23;20021;-72
2023/10/01 03:33:30;;;;;;;10.70;5.80;;;;;;;11.58;89.70;100344.41;12674962;23;20446;-73
2023/10/01 03:38:32;;;;;;;9.32;4.90;;;;;;;11.78;89.52;100354.59;12674732;23;20029;-73
2023/10/01 03:43:34;;;;;;;11.98;5.13;;;;;;;11.62;89.58;100307.66;12674318;23;20082;-73
2023/10/01 03:54:03;;;;;;;16.85;5.65;;;;;;;12.14;89.13;100348.75;12618785;23;20020;-72
2023/10/01 03:59:15;;;;;;;14.73;5.75;;;;;;;12.43;89.08;100348.84;12677680;23;20101;-72
2023/10/01 04:04:18;;;;;;;11.07;5.93;;;;;;;12.52;89.15;100328.28;12679006;23;20347;-73
2023/10/01 04:09:19;;;;;;;17.15;5.55;;;;;;;12.48;88.70;100289.69;12678407;23;20060;-73
2023/10/01 04:14:23;;;;;;;11.52;5.75;;;;;;;13.14;88.75;100349.28;12677577;23;20510;-73
2023/10/01 04:19:24;;;;;;;12.68;5.00;;;;;;;13.01;88.43;100291.28;12677798;23;20029;-74
2023/10/01 04:24:27;;;;;;;9.25;5.05;;;;;;;13.56;88.67;100350.47;12677148;23;20096;-73
2023/10/01 04:29:44;;;;;;;10.98;5.80;;;;;;;13.77;88.37;100343.53;12677247;23;20049;-73
2023/10/01 04:34:45;;;;;;;8.02;5.20;;;;;;;14.05;88.23;100348.94;12676885;23;20101;-73
2023/10/01 04:39:46;;;;;;;21.80;7.50;;;;;;;14.26;88.18;100334.75;12677660;23;20101;-73
2023/10/01 04:44:47;;;;;;;12.52;6.60;;;;;;;14.86;86.63;100316.50;12677708;23;20022;-73
2023/10/01 04:49:51;;;;;;;23.75;9.38;;;;;;;16.11;84.31;100339.44;12651056;23;20436;-73
2023/10/01 04:54:52;;;;;;;18.85;6.75;;;;;;;16.66;82.63;100340.06;12677409;23;20018;-73
2023/10/01 04:59:59;;;;;;;21.60;7.72;;;;;;;17.05;81.31;100324.97;12676588;23;20057;-73
2023/10/01 05:05:09;;;;;;;13.88;6.03;;;;;;;17.21;80.18;100278.88;12677052;23;20021;-73
2023/10/01 05:10:09;;;;;;;16.27;11.02;;;;;;;17.61;79.45;100285.91;12676672;23;20088;-73
2023/10/01 05:15:25;;;;;;;34.17;11.43;;;;;;;18.36;78.31;100348.69;12651488;23;20417;-74
2023/10/01 05:20:25;;;;;;;22.98;11.82;;;;;;;18.85;76.73;100355.13;12677076;23;20021;-74
2023/10/01 05:25:27;;;;;;;30.45;8.05;;;;;;;18.80;76.61;100324.53;12674926;23;20025;-73
2023/10/01 05:30:38;;;;;;;37.05;6.05;;;;;;;18.72;77.70;100352.50;12676784;23;20056;-74
2023/10/01 05:35:41;;;;;;;36.55;5.85;;;;;;;18.79;78.61;100349.81;12675302;23;20049;-75
2023/10/01 05:40:42;;;;;;;18.95;6.15;;;;;;;19.08;77.27;100289.84;12676126;23;20446;-73
2023/10/01 05:45:50;;;;;;;32.53;14.55;;;;;;;19.96;77.15;100368.56;12677214;23;20048;-74
2023/10/01 05:50:52;;;;;;;11.80;5.15;;;;;;;19.99;76.59;100341.94;12675918;23;20018;-72
2023/10/01 05:55:54;;;;;;;12.95;3.80;;;;;;;20.21;75.98;100331.44;12676220;23;20101;-72
2023/10/01 06:00:58;;;;;;;9.82;3.45;;;;;;;20.49;75.30;100330.78;12675986;23;20402;-72
2023/10/01 06:05:59;;;;;;;9.05;4.13;;;;;;;20.84;74.42;100343.47;12673997;23;20025;-77
2023/10/01 06:11:09;;;;;;;13.90;2.85;;;;;;;20.73;73.06;100306.50;12675341;23;20013;-78
2023/10/01 06:16:14;;;;;;;5.93;3.13;;;;;;;21.26;72.80;100348.72;12676311;23;20025;-77
2023/10/01 06:21:16;;;;;;;6.18;3.20;;;;;;;21.31;71.51;100351.53;12675959;23;20467;-77
2023/10/01 06:26:22;;;;;;;36.13;4.32;;;;;;;21.51;71.55;100353.84;12674430;23;20022;-77
2023/10/01 06:31:23;;;;;;;13.68;3.42;;;;;;;21.21;70.76;100310.81;12675198;23;20025;-77
2023/10/01 06:36:25;;;;;;;9.75;2.90;;;;;;;21.52;70.29;100319.53;12649537;23;20018;-77
2023/10/01 06:41:26;;;;;;;8.70;2.67;;;;;;;21.76;69.54;100350.81;12676123;23;20022;-71
2023/10/01 06:46:27;;;;;;;7.75;2.53;;;;;;;22.01;68.65;100347.75;12674851;23;20014;-73
2023/10/01 06:51:37;;;;;;;8.63;2.80;;;;;;;21.73;67.76;100282.91;12673734;23;20073;-76
2023/10/01 06:56:44;;;;;;;6.50;2.72;;;;;;;22.40;67.35;100347.91;12674686;23;20096;-77
2023/10/01 07:01:50;;;;;;;34.30;17.05;;;;;;;22.45;65.87;100350.69;12674465;23;20021;-77
2023/10/01 07:06:51;;;;;;;28.40;17.60;;;;;;;22.39;65.35;100288.63;12674954;23;20021;-78
2023/10/01 07:11:52;;;;;;;35.85;19.55;;;;;;;21.60;65.72;100178.59;12675683;23;20018;-76
2023/10/01 07:16:53;;;;;;;17.20;8.25;;;;;;;22.86;65.51;100328.84;12674421;23;20013;-77
2023/10/01 07:21:58;;;;;;;9.55;3.90;;;;;;;22.92;65.09;100314.31;12677983;23;20104;-76
2023/10/01 07:27:06;;;;;;;14.90;3.78;;;;;;;22.51;63.85;100294.75;12629784;23;20033;-76
2023/10/01 07:32:09;;;;;;;4.80;2.90;;;;;;;22.94;62.69;100322.97;12679312;23;20332;-78
2023/10/01 07:37:09;;;;;;;10.70;3.27;;;;;;;23.00;61.32;100301.16;12679455;23;20061;-77
2023/10/01 07:42:10;;;;;;;7.63;2.60;;;;;;;22.63;60.76;100276.53;12678310;23;20245;-76
2023/10/01 07:47:28;;;;;;;11.93;3.50;;;;;;;23.01;61.31;100313.63;12678241;23;20022;-77
2023/10/01 07:52:36;;;;;;;9.13;3.13;;;;;;;23.18;59.73;100302.75;12678796;23;20013;-76
2023/10/01 07:57:47;;;;;;;5.72;2.97;;;;;;;23.24;58.40;100307.16;12678520;23;20585;-77
2023/10/01 08:08:13;;;;;;;12.13;2.33;;;;;;;23.37;55.72;100294.28;12678651;23;20014;-76
2023/10/01 08:13:28;;;;;;;8.77;2.63;;;;;;;23.42;55.18;100253.66;12678470;23;20014;-78
2023/10/01 08:18:35;;;;;;;12.80;2.58;;;;;;;23.52;54.45;100264.63;12677370;23;20017;-77
2023/10/01 08:23:45;;;;;;;8.73;2.40;;;;;;;23.76;52.88;100272.50;12677952;23;20018;-77
2023/10/01 08:28:55;;;;;;;6.68;2.03;;;;;;;23.56;50.93;100235.09;12678782;23;20022;-75
2023/10/01 08:34:22;;;;;;;4.68;1.77;;;;;;;23.81;48.79;100229.97;12677951;23;20398;-76
2023/10/01 08:39:19;;;;;;;19.38;2.67;;;;;;;24.27;48.38;100275.63;12677297;23;20021;-76
2023/10/01 08:44:30;;;;;;;17.45;4.80;;;;;;;24.37;47.72;100279.22;12677090;23;20064;-76
2023/10/01 08:49:31;;;;;;;10.43;2.60;;;;;;;24.40;46.98;100268.91;12650622;23;20053;-76
2023/10/01 08:54:32;;;;;;;13.50;2.58;;;;;;;24.40;47.39;100248.00;12677534;23;20025;-76
2023/10/01 08:59:35;;;;;;;14.40;3.35;;;;;;;24.62;46.13;100253.34;12676597;23;20022;-76
2023/10/01 09:04:45;;;;;;;12.07;2.38;;;;;;;24.32;45.04;100195.03;12677672;23;20018;-80
2023/10/01 09:09:59;;;;;;;8.60;2.80;;;;;;;24.92;43.19;100258.13;12677269;23;20025;-75
2023/10/01 09:15:01;;;;;;;8.00;2.60;;;;;;;24.44;45.84;100175.88;12651826;23;20477;-76
2023/10/01 09:20:06;;;;;;;11.70;2.42;;;;;;;24.39;44.46;100170.38;12677194;23;20022;-76
2023/10/01 09:25:21;;;;;;;7.80;2.75;;;;;;;24.85;43.49;100214.06;12676129;23;20516;-76
2023/10/01 09:30:27;;;;;;;8.00;2.30;;;;;;;24.91;44.32;100196.69;12676172;23;20017;-76
2023/10/01 09:36:02;;;;;;;8.63;4.30;;;;;;;25.08;43.81;100210.06;12676855;23;20544;-75
2023/10/01 09:41:19;;;;;;;13.32;2.72;;;;;;;25.00;44.54;100196.97;12676591;23;20028;-75
2023/10/01 09:46:21;;;;;;;10.13;2.55;;;;;;;24.92;44.55;100162.16;12676385;23;20404;-77
2023/10/01 09:51:23;;;;;;;6.78;2.28;;;;;;;25.37;44.86;100210.44;12675800;23;20455;-75
2023/10/01 09:56:29;;;;;;;10.75;2.25;;;;;;;25.30;44.94;100201.72;12675794;23;20077;-75
2023/10/01 10:01:31;;;;;;;9.40;2.53;;;;;;;25.09;45.03;100140.22;12676301;23;20021;-77
2023/10/01 10:06:34;;;;;;;7.40;2.20;;;;;;;25.62;44.97;100184.34;12675796;23;20399;-76
2023/10/01 10:11:37;;;;;;;15.00;2.75;;;;;;;25.43;44.19;100152.25;12676243;23;20017;-76
2023/10/01 10:16:58;;;;;;;9.05;2.90;;;;;;;25.60;43.42;100173.72;12674143;23;20097;-78
2023/10/01 10:27:09;;;;;;;;;;;;;;;25.96;43.32;100165.56;12676619;23;20080;-75
2023/10/01 10:32:10;;;;;;;17.10;3.60;;;;;;;25.73;44.11;100128.84;12650163;23;19987;-76
2023/10/01 10:37:37;;;;;;;9.13;2.70;;;;;;;25.85;43.05;100147.66;12676345;23;20092;-76
2023/10/01 10:42:38;;;;;;;10.68;2.33;;;;;;;25.73;43.41;100123.41;12675420;23;20018;-76
2023/10/01 10:48:03;;;;;;;18.83;3.22;;;;;;;25.78;43.36;100142.44;12675726;23;20064;-76
2023/10/01 10:53:14;;;;;;;13.98;2.83;;;;;;;25.59;44.91;100122.34;12675484;23;20017;-77
2023/10/01 10:58:17;;;;;;;19.38;3.30;;;;;;;25.56;44.60;100077.44;12674895;23;20084;-75
2023/10/01 11:03:48;;;;;;;10.17;3.00;;;;;;;25.26;44.84;100119.06;12674793;23;20020;-75
2023/10/01 11:08:53;;;;;;;28.90;3.78;;;;;;;25.60;44.85;100113.88;12674249;23;20478;-76
2023/10/01 11:14:00;;;;;;;14.80;3.17;;;;;;;25.64;43.69;100054.34;12675213;23;20022;-78
2023/10/01 11:19:12;;;;;;;14.43;3.08;;;;;;;25.99;43.55;100072.47;12674205;23;20018;-77
2023/10/01 11:24:13;;;;;;;22.17;3.03;;;;;;;26.24;42.99;100089.84;12674552;23;20021;-77
2023/10/01 11:29:22;;;;;;;5.93;3.63;;;;;;;25.47;43.31;100039.09;12674423;23;20049;-76
2023/10/01 11:34:26;;;;;;;15.77;5.22;;;;;;;25.63;43.77;100036.34;12674869;23;20447;-76
2023/10/01 11:39:38;;;;;;;22.30;4.10;;;;;;;26.05;43.11;100076.81;12675028;23;20097;-75
2023/10/01 11:44:43;;;;;;;8.68;2.95;;;;;;;25.97;43.07;100082.84;12673991;23;20021;-77
2023/10/01 11:49:44;;;;;;;12.00;2.90;;;;;;;25.32;44.08;100076.38;12649487;23;20022;-75
2023/10/01 11:54:45;;;;;;;9.25;3.10;;;;;;;24.21;44.74;99953.69;12673873;23;20395;-76
2023/10/01 11:59:46;;;;;;;27.67;2.95;;;;;;;24.74;45.38;100063.81;12647998;23;20018;-76
2023/10/01 12:04:51;;;;;;;30.25;5.82;;;;;;;24.68;45.32;100059.44;12674084;23;20045;-76
2023/10/01 12:09:55;;;;;;;15.15;4.80;;;;;;;24.77;45.27;100052.41;12678507;23;20057;-77
2023/10/01 12:14:56;;;;;;;27.63;7.97;;;;;;;24.84;45.42;99995.09;12651743;23;20041;-76
2023/10/01 12:20:01;;;;;;;14.20;4.07;;;;;;;25.49;43.83;100053.25;12678035;23;20028;-75
2023/10/01 12:25:02;;;;;;;20.08;4.55;;;;;;;25.30;43.39;100008.66;12677832;23;20439;-76
2023/10/01 12:30:10;;;;;;;18.83;6.72;;;;;;;25.25;43.63;100008.69;12678119;23;20017;-80
2023/10/01 12:35:29;;;;;;;10.65;3.90;;;;;;;24.93;43.78;100015.19;12678024;23;20446;-76
2023/10/01 12:40:34;;;;;;;19.50;4.55;;;;;;;24.32;44.86;99974.31;12677790;23;20025;-77
2023/10/01 12:45:35;;;;;;;17.65;6.43;;;;;;;24.28;44.92;99978.66;12677903;23;20100;-78
2023/10/01 12:50:36;;;;;;;10.40;3.70;;;;;;;24.30;45.16;99955.59;12677303;23;20401;-79
2023/10/01 12:55:39;;;;;;;9.30;3.53;;;;;;;24.60;45.55;100009.19;12676560;23;20351;-77
2023/10/01 13:00:46;;;;;;;8.90;2.80;;;;;;;24.45;45.00;99957.56;12676817;23;20041;-78
2023/10/01 13:05:49;;;;;;;11.52;3.38;;;;;;;24.70;45.05;99974.97;12676486;23;20049;-77
2023/10/01 13:10:51;;;;;;;8.35;3.17;;;;;;;24.55;45.13;99971.13;12677426;23;20018;-77
2023/10/01 13:15:54;;;;;;;16.02;3.35;;;;;;;24.57;45.79;100019.75;12676075;23;20017;-77
2023/10/01 13:21:06;;;;;;;8.95;3.10;;;;;;;24.32;45.84;100004.19;12675785;23;20366;-77
2023/10/01 13:26:24;;;;;;;17.30;3.40;;;;;;;24.28;45.26;100005.81;12677173;23;20025;-78
2023/10/01 13:36:50;;;;;;;14.13;2.80;;;;;;;23.98;45.94;100003.81;12676752;23;20014;-77
2023/10/01 16:08:43;;;;;;;15.18;3.50;;;;;;;20.98;54.42;99974.94;10470914;28;20399;-79
2023/10/01 16:13:52;;;;;;;13.10;3.63;;;;;;;21.34;54.63;100020.59;10292379;28;20053;-79
2023/10/01 16:18:55;;;;;;;20.48;3.70;;;;;;;21.35;54.56;100020.34;10279875;28;20142;-78
2023/10/01 16:23:58;;;;;;;13.32;3.33;;;;;;;21.12;54.20;99988.09;10278683;28;20055;-82
2023/10/01 16:29:07;;;;;;;22.52;3.97;;;;;;;21.19;54.59;100010.38;10276673;28;20065;-83
2023/10/01 16:34:07;;;;;;;21.15;3.85;;;;;;;20.68;54.50;99947.44;10278664;28;20050;-83
2023/10/01 16:39:16;;;;;;;12.05;3.10;;;;;;;20.94;54.99;100008.91;10278594;28;20050;-82
2023/10/01 16:44:18;;;;;;;12.73;3.75;;;;;;;20.97;54.88;100040.81;10277854;28;20133;-82
2023/10/01 16:49:19;;;;;;;9.70;3.35;;;;;;;20.78;54.80;100015.06;10276983;28;20057;-72
2023/10/01 16:54:27;;;;;;;10.98;4.10;;;;;;;20.21;55.05;99953.84;10274945;28;20046;-81
2023/10/01 16:59:31;;;;;;;9.60;3.38;;;;;;;20.28;54.58;99977.97;10237393;29;20570;-83
2023/10/01 17:04:34;;;;;;;26.45;4.45;;;;;;;20.59;54.57;100037.94;10270794;28;20173;-81
2023/10/01 17:09:35;;;;;;;12.25;3.35;;;;;;;20.42;54.94;100035.97;10293624;28;20043;-81
2023/10/01 17:14:46;;;;;;;17.13;3.50;;;;;;;19.43;55.36;99887.03;10277391;28;20058;-86
2023/10/01 18:37:56;;;;;;;;;;;;;;;;;;;;;
2023/10/01 18:43:52;;;;;;;10.82;3.70;;;;;;;18.13;62.13;99867.28;10172977;28;20126;-89
2023/10/01 18:49:40;;;;;;;16.08;3.70;;;;;;;18.96;62.22;100002.81;10172058;29;20048;-84
2023/10/01 19:09:03;;;;;;;18.23;2.92;;;;;;;18.96;62.41;99998.22;10127510;29;20099;-89
2023/10/01 19:28:27;;;;;;;;;;;;;;;;;;;;;
2023/10/01 19:33:44;;;;;;;11.18;3.10;;;;;;;17.70;62.17;99818.00;9902168;30;20141;-90
2023/10/01 19:39:23;;;;;;;11.25;3.30;;;;;;;17.79;61.90;99824.72;9867926;30;20051;-81
2023/10/01 19:57:17;;;;;;;;;;;;;;;;;;;;;
2023/10/01 20:09:33;;;;;;;;;;;;;;;;;;;;;
2023/10/01 20:21:05;;;;;;;;;;;;;;;;;;;;;
2023/10/01 20:44:50;;;;;;;13.70;3.53;;;;;;;16.89;64.50;99715.34;10104416;28;20420;-83
2023/10/01 20:49:53;;;;;;;15.77;3.90;;;;;;;16.66;65.26;99686.53;10122524;29;20512;-83
2023/10/01 20:55:38;;;;;;;8.43;3.92;;;;;;;17.93;67.11;99895.22;10128369;29;20048;-83
2023/10/01 21:01:44;;;;;;;;;;;;;;;;;;;;;
2023/10/01 21:19:52;;;;;;;10.70;4.28;;;;;;;17.03;71.86;99833.28;10284251;28;20116;-82
2023/10/01 21:36:43;;;;;;;9.43;4.80;;;;;;;16.10;76.28;99727.69;10289850;28;20051;-82
2023/10/01 21:42:36;;;;;;;;;;;;;;;;;;;;;
2023/10/01 21:48:12;;;;;;;;;;;;;;;17.17;76.15;99893.81;10324906;28;20046;-81
2023/10/01 21:54:29;;;;;;;8.88;4.82;;;;;;;15.53;77.94;99665.28;10317381;28;19918;-82
2023/10/01 21:59:43;;;;;;;8.57;4.50;;;;;;;15.45;77.46;99671.69;10284927;28;20063;-81
2023/10/01 22:05:28;;;;;;;6.82;5.18;;;;;;;16.51;79.93;99824.66;10290158;28;20073;-81
2023/10/01 22:11:45;;;;;;;;;;;;;;;;;;;;;
2023/10/01 22:17:03;;;;;;;10.25;5.05;;;;;;;15.40;80.01;99658.13;10232466;29;20090;-82
2023/10/01 22:22:18;;;;;;;9.10;5.53;;;;;;;15.27;80.60;99626.94;10249660;28;20085;-81
2023/10/01 22:28:15;;;;;;;;;;;;;;;;;;;;;
2023/10/01 22:33:47;;;;;;;7.63;5.15;;;;;;;15.28;81.88;99617.03;10248278;29;20043;-81
2023/10/01 22:39:01;;;;;;;7.78;5.43;;;;;;;15.24;80.49;99610.50;10232406;29;20511;-81
2023/10/01 22:50:26;;;;;;;7.95;4.72;;;;;;;15.40;81.16;99631.38;10240248;28;20059;-82
2023/10/01 22:56:28;;;;;;;9.13;5.25;;;;;;;15.45;84.95;99644.94;10284538;28;20077;-82
2023/10/01 23:01:56;;;;;;;9.50;5.10;;;;;;;15.35;82.41;99641.09;10287694;28;20058;-81
2023/10/01 23:07:18;;;;;;;;;;;;;;;;;;;;;
2023/10/01 23:13:12;;;;;;;13.23;4.88;;;;;;;15.57;85.59;99695.91;10327122;28;20535;-81
2023/10/01 23:19:28;;;;;;;10.10;5.47;;;;;;;15.10;87.05;99614.28;10312951;28;20086;-82
2023/10/01 23:36:42;;;;;;;7.03;5.00;;;;;;;14.94;88.78;99612.94;10338479;28;20426;-83
2023/10/01 23:41:48;;;;;;;8.70;5.28;;;;;;;16.20;85.88;99811.06;10322594;28;20046;-81
2023/10/01 23:47:00;;;;;;;9.85;5.70;;;;;;;15.77;86.41;99733.31;10310307;28;20054;-81
2023/10/01 23:52:16;;;;;;;7.78;4.47;;;;;;;14.89;85.46;99605.56;10325952;28;20043;-81
2023/10/01 23:57:32;;;;;;;;;;;;;;;;;;;;;
